createdAt,value
2017-11-10T04:44:02.234Z,23.53
2017-11-10T04:46:29.021Z,34.23
2017-11-10T04:48:55.798Z,18.93
2017-11-10T04:51:22.634Z,32.87
2017-11-10T04:53:49.404Z,23.60
2017-11-10T04:56:16.212Z,14.83
2017-11-10T04:58:43.004Z,20.40
2017-11-10T05:01:09.818Z,17.80
2017-11-10T05:03:36.593Z,19.60
2017-11-10T05:06:03.437Z,24.93
2017-11-10T05:08:30.250Z,33.17
2017-11-10T05:10:57.040Z,31.00
2017-11-10T05:13:23.860Z,22.73
2017-11-10T05:15:50.639Z,21.60
2017-11-10T05:18:17.439Z,27.83
2017-11-10T05:20:44.271Z,21.83
2017-11-10T05:23:11.024Z,29.97
2017-11-10T05:25:37.838Z,28.60
2017-11-10T05:28:04.688Z,30.57
2017-11-10T05:30:31.530Z,24.90
2017-11-10T05:32:58.332Z,22.80
2017-11-10T05:35:25.191Z,24.83
2017-11-10T05:37:52.044Z,26.73
2017-11-10T05:40:18.879Z,28.47
2017-11-10T05:42:45.750Z,27.47
2017-11-10T05:45:12.566Z,27.27
2017-11-10T05:47:39.400Z,23.33
2017-11-10T05:50:06.280Z,22.60
2017-11-10T05:52:33.090Z,24.10
2017-11-10T05:54:59.920Z,34.80
2017-11-10T05:57:26.782Z,23.33
2017-11-10T05:59:53.603Z,19.90
2017-11-10T06:02:20.560Z,18.27
2017-11-10T06:04:47.404Z,40.10
2017-11-10T06:07:14.277Z,25.43
2017-11-10T06:09:41.288Z,25.00
2017-11-10T06:12:08.164Z,31.00
2017-11-10T06:14:34.929Z,25.07
2017-11-10T06:17:02.026Z,34.87
2017-11-10T06:19:28.853Z,19.33
2017-11-10T06:21:55.628Z,34.40
2017-11-10T06:24:22.487Z,24.70
2017-11-10T06:26:49.311Z,21.83
2017-11-10T06:29:16.097Z,28.80
2017-11-10T06:31:42.943Z,19.97
2017-11-10T06:34:09.948Z,17.40
2017-11-10T06:36:36.716Z,23.90
2017-11-10T06:39:03.542Z,19.07
2017-11-10T06:41:30.350Z,23.00
2017-11-10T06:43:57.499Z,20.80
2017-11-10T06:46:30.773Z,18.10
2017-11-10T06:48:57.551Z,19.07
2017-11-10T06:51:24.336Z,28.40
2017-11-10T06:53:51.174Z,29.90
2017-11-10T06:56:17.999Z,25.77
2017-11-10T06:58:44.799Z,17.47
2017-11-10T07:01:11.701Z,18.50
2017-11-10T07:03:38.492Z,23.67
2017-11-10T07:06:05.329Z,24.00
2017-11-10T07:08:32.150Z,23.97
2017-11-10T07:10:58.944Z,27.20
2017-11-10T07:13:25.753Z,31.63
2017-11-10T07:15:52.680Z,22.80
2017-11-10T07:18:19.452Z,31.43
2017-11-10T07:20:46.235Z,20.83
2017-11-10T07:23:13.034Z,21.40
2017-11-10T07:25:39.838Z,25.50
2017-11-10T07:28:06.656Z,34.47
2017-11-10T07:30:33.470Z,27.70
2017-11-10T07:33:00.606Z,26.70
2017-11-10T07:35:27.372Z,31.57
2017-11-10T07:37:54.201Z,25.83
2017-11-10T07:40:21.007Z,23.03
2017-11-10T07:42:47.773Z,19.90
2017-11-10T07:45:14.601Z,41.23
2017-11-10T07:47:41.388Z,34.03
2017-11-10T07:50:08.169Z,15.73
2017-11-10T07:52:34.990Z,47.77
2017-11-10T07:55:01.828Z,30.67
2017-11-10T07:57:28.677Z,34.70
2017-11-10T07:59:55.538Z,20.07
2017-11-10T08:02:22.357Z,18.60
2017-11-10T08:04:49.149Z,24.93
2017-11-10T08:07:15.966Z,44.73
2017-11-10T08:09:42.731Z,23.57
2017-11-10T08:12:09.627Z,30.10
2017-11-10T08:14:36.528Z,31.57
2017-11-10T08:17:03.309Z,30.10
2017-11-10T08:19:30.142Z,27.20
2017-11-10T08:21:56.959Z,43.23
2017-11-10T08:24:23.763Z,30.47
2017-11-10T08:26:50.525Z,32.00
2017-11-10T08:29:17.368Z,28.00
2017-11-10T08:31:44.160Z,30.80
2017-11-10T08:34:10.953Z,32.30
2017-11-10T08:36:37.796Z,27.80
2017-11-10T08:39:04.643Z,24.77
2017-11-10T08:41:31.535Z,29.43
2017-11-10T08:43:58.348Z,26.00
2017-11-10T08:46:25.163Z,27.53
2017-11-10T08:48:52.220Z,24.23
2017-11-10T08:51:19.051Z,28.10
2017-11-10T08:53:45.828Z,29.87
2017-11-10T08:56:12.618Z,25.57
2017-11-10T08:58:39.409Z,36.77
2017-11-10T09:01:06.188Z,33.43
2017-11-10T09:03:32.978Z,26.87
2017-11-10T09:05:59.822Z,18.60
2017-11-10T09:08:26.864Z,31.63
2017-11-10T09:10:53.651Z,20.90
2017-11-10T09:13:20.452Z,28.47
2017-11-10T09:15:47.238Z,25.57
2017-11-10T09:18:14.032Z,34.50
2017-11-10T09:20:40.944Z,21.30
2017-11-10T09:23:07.715Z,33.97
2017-11-10T09:25:34.547Z,31.70
2017-11-10T09:28:02.182Z,33.77
2017-11-10T09:30:29.540Z,19.83
2017-11-10T09:33:13.059Z,38.60
2017-11-10T09:35:45.507Z,24.03
2017-11-10T09:38:12.843Z,18.63
2017-11-10T09:40:52.374Z,30.87
2017-11-10T09:43:35.898Z,27.30
2017-11-10T09:46:08.308Z,21.50
2017-11-10T09:48:40.847Z,29.80
2017-11-10T09:51:13.320Z,22.93
2017-11-10T09:53:56.174Z,23.60
2017-11-10T09:56:28.612Z,23.50
2017-11-10T09:59:14.190Z,23.23
2017-11-10T10:01:46.500Z,29.63
2017-11-10T10:04:16.955Z,34.63
2017-11-10T10:06:58.656Z,25.30
2017-11-10T10:09:41.223Z,21.10
2017-11-10T10:12:21.803Z,20.37
2017-11-10T10:15:07.435Z,22.37
2017-11-10T10:17:50.867Z,29.27
2017-11-10T10:20:33.461Z,18.70
2017-11-10T10:23:00.377Z,25.87
2017-11-10T10:25:27.181Z,17.33
2017-11-10T10:27:54.004Z,14.73
2017-11-10T10:30:20.804Z,19.53
2017-11-10T10:32:47.594Z,20.60
2017-11-10T10:35:14.387Z,21.47
2017-11-10T10:37:41.255Z,17.50
2017-11-10T10:40:08.032Z,17.80
2017-11-10T10:42:34.885Z,25.00
2017-11-10T10:45:01.723Z,19.83
2017-11-10T10:47:28.492Z,28.37
2017-11-10T10:49:55.327Z,16.83
2017-11-10T10:52:22.231Z,24.07
2017-11-10T10:54:49.005Z,9.20
2017-11-10T10:57:15.821Z,23.10
2017-11-10T10:59:42.616Z,26.37
2017-11-10T11:02:09.365Z,24.20
2017-11-10T11:04:36.171Z,21.03
2017-11-10T11:07:03.026Z,20.10
2017-11-10T11:09:29.815Z,37.37
2017-11-10T11:11:56.611Z,14.67
2017-11-10T11:14:23.459Z,22.33
2017-11-10T11:16:50.276Z,16.67
2017-11-10T11:19:17.064Z,15.07
2017-11-10T11:21:44.168Z,33.30
2017-11-10T11:24:10.969Z,9.07
2017-11-10T11:26:38.668Z,20.90
2017-11-10T11:29:05.512Z,15.87
2017-11-10T11:31:32.363Z,22.90
2017-11-10T11:33:59.221Z,9.07
2017-11-10T11:36:26.067Z,18.63
2017-11-10T11:38:52.881Z,16.20
2017-11-10T11:41:19.668Z,8.07
2017-11-10T11:43:46.509Z,12.10
2017-11-10T11:46:13.322Z,15.43
2017-11-10T11:48:40.423Z,18.87
2017-11-10T11:51:07.295Z,5.70
2017-11-10T11:53:34.110Z,12.57
2017-11-10T11:56:00.912Z,21.73
2017-11-10T11:58:27.742Z,16.17
2017-11-10T12:00:54.570Z,17.87
2017-11-10T12:03:21.403Z,13.00
2017-11-10T12:05:48.317Z,16.33
2017-11-10T12:08:15.156Z,10.70
2017-11-10T12:10:42.316Z,8.70
2017-11-10T12:13:09.106Z,14.43
2017-11-10T12:15:36.158Z,16.23
2017-11-10T12:18:02.989Z,6.90
2017-11-10T12:20:29.912Z,9.57
2017-11-10T12:22:56.763Z,12.43
2017-11-10T12:25:23.640Z,15.10
2017-11-10T12:27:50.489Z,13.40
2017-11-10T12:30:17.273Z,10.97
2017-11-10T12:32:44.093Z,6.30
2017-11-10T12:35:10.904Z,6.83
2017-11-10T12:37:37.703Z,16.73
2017-11-10T12:40:04.480Z,8.07
2017-11-10T12:42:31.280Z,10.70
2017-11-10T12:44:58.108Z,4.00
2017-11-10T12:47:24.887Z,1.90
2017-11-10T12:49:51.714Z,1.53
2017-11-10T12:52:18.507Z,5.23
2017-11-10T12:54:45.318Z,2.60
2017-11-10T12:57:12.147Z,4.30
2017-11-10T12:59:38.944Z,4.10
2017-11-10T13:02:05.749Z,11.50
2017-11-10T13:04:32.567Z,3.90
2017-11-10T13:06:59.370Z,2.40
2017-11-10T13:09:26.214Z,3.33
2017-11-10T13:11:53.057Z,4.10
2017-11-10T13:14:19.836Z,3.83
2017-11-10T13:16:46.638Z,3.97
2017-11-10T13:19:13.477Z,2.80
2017-11-10T13:21:40.262Z,1.87
2017-11-10T13:24:07.032Z,6.18
2017-11-10T13:26:33.825Z,4.40
2017-11-10T13:29:00.600Z,8.03
2017-11-10T13:31:27.368Z,4.97
2017-11-10T13:33:54.177Z,1.53
2017-11-10T13:36:20.967Z,2.23
2017-11-10T13:38:47.753Z,4.00
2017-11-10T13:41:14.668Z,13.20
2017-11-10T13:43:41.450Z,11.53
2017-11-10T13:46:08.264Z,4.90
2017-11-10T13:48:35.050Z,4.23
2017-11-10T13:51:01.833Z,6.63
2017-11-10T13:53:28.612Z,7.03
2017-11-10T13:55:55.418Z,7.20
2017-11-10T13:58:22.217Z,1.43
2017-11-10T14:00:49.221Z,7.67
2017-11-10T14:03:16.030Z,2.80
2017-11-10T14:05:42.792Z,7.70
2017-11-10T14:08:09.592Z,3.90
2017-11-10T14:10:36.486Z,2.93
2017-11-10T14:13:03.274Z,10.20
2017-11-10T14:15:30.031Z,5.80
2017-11-10T14:17:56.856Z,6.27
2017-11-10T14:20:23.644Z,5.13
2017-11-10T14:22:50.710Z,2.50
2017-11-10T14:25:17.564Z,8.53
2017-11-10T14:27:44.335Z,2.83
2017-11-10T14:30:11.130Z,10.10
2017-11-10T14:32:37.908Z,1.60
2017-11-10T14:35:04.701Z,4.60
2017-11-10T14:37:31.468Z,9.47
2017-11-10T14:39:58.337Z,1.50
2017-11-10T14:42:25.136Z,3.10
2017-11-10T14:44:51.975Z,5.20
2017-11-10T14:47:18.784Z,8.03
2017-11-10T14:49:45.597Z,10.07
2017-11-10T14:52:12.729Z,11.83
2017-11-10T14:54:39.520Z,4.33
2017-11-10T14:57:06.283Z,4.27
2017-11-10T14:59:33.068Z,14.03
2017-11-10T15:01:59.943Z,6.97
2017-11-10T15:04:26.736Z,5.07
2017-11-10T15:06:53.524Z,14.43
2017-11-10T15:09:20.596Z,8.23
2017-11-10T15:11:47.659Z,4.83
2017-11-10T15:14:14.463Z,4.67
2017-11-10T15:16:41.285Z,5.17
2017-11-10T15:19:08.158Z,5.00
2017-11-10T15:21:34.965Z,15.60
2017-11-10T15:24:01.808Z,3.20
2017-11-10T15:26:28.649Z,5.63
2017-11-10T15:28:55.455Z,6.20
2017-11-10T15:31:22.283Z,5.37
2017-11-10T15:33:49.840Z,7.53
2017-11-10T15:36:16.641Z,4.63
2017-11-10T15:38:43.445Z,8.50
2017-11-10T15:41:10.252Z,16.53
2017-11-10T15:43:37.073Z,4.77
2017-11-10T15:46:03.903Z,10.03
2017-11-10T15:48:30.680Z,12.57
2017-11-10T15:50:57.460Z,6.00
2017-11-10T15:53:24.282Z,8.93
2017-11-10T15:55:51.149Z,3.80
2017-11-10T15:58:17.947Z,5.50
2017-11-10T16:00:44.809Z,11.07
2017-11-10T16:03:11.607Z,4.63
2017-11-10T16:05:38.419Z,18.40
2017-11-10T16:08:05.236Z,4.23
2017-11-10T16:10:32.024Z,12.53
2017-11-10T16:12:58.771Z,6.77
2017-11-10T16:15:25.576Z,1.60
2017-11-10T16:17:52.348Z,9.70
2017-11-10T16:20:19.113Z,5.97
2017-11-10T16:22:46.402Z,12.57
2017-11-10T16:25:13.209Z,7.23
2017-11-10T16:27:39.989Z,4.50
2017-11-10T16:30:06.816Z,8.53
2017-11-10T16:32:33.565Z,2.30
2017-11-10T16:35:00.347Z,10.40
2017-11-10T16:37:27.246Z,5.30
2017-11-10T16:39:54.063Z,1.87
2017-11-10T16:42:21.064Z,8.43
2017-11-10T16:44:47.888Z,12.90
2017-11-10T16:47:14.674Z,14.23
2017-11-10T16:49:41.493Z,17.33
2017-11-10T16:52:08.340Z,15.60
2017-11-10T16:54:35.139Z,3.00
2017-11-10T16:57:01.921Z,8.13
2017-11-10T16:59:28.784Z,7.50
2017-11-10T17:01:55.674Z,9.77
2017-11-10T17:04:22.449Z,6.70
2017-11-10T17:06:49.249Z,21.67
2017-11-10T17:09:16.268Z,13.03
2017-11-10T17:11:43.080Z,5.43
2017-11-10T17:14:09.927Z,10.70
2017-11-10T17:16:36.767Z,4.50
2017-11-10T17:19:03.611Z,5.97
2017-11-10T17:21:30.432Z,4.87
2017-11-10T17:23:57.206Z,6.23
2017-11-10T17:26:24.033Z,6.20
2017-11-10T17:28:50.892Z,2.40
2017-11-10T17:31:17.683Z,3.67
2017-11-10T17:33:44.507Z,6.27
2017-11-10T17:36:11.362Z,1.93
2017-11-10T17:38:38.152Z,3.23
2017-11-10T17:41:04.945Z,3.20
2017-11-10T17:43:31.826Z,3.80
2017-11-10T17:45:58.868Z,3.00
2017-11-10T17:48:25.704Z,7.23
2017-11-10T17:50:52.530Z,2.00
2017-11-10T17:53:19.294Z,5.23
2017-11-10T17:55:46.110Z,4.73
2017-11-10T17:58:12.997Z,4.33
2017-11-10T18:00:40.062Z,9.30
2017-11-10T18:03:07.086Z,8.67
2017-11-10T18:05:33.935Z,2.53
2017-11-10T18:08:00.758Z,0.60
2017-11-10T18:10:27.580Z,4.30
2017-11-10T18:12:54.411Z,1.10
2017-11-10T18:15:21.206Z,2.50
2017-11-10T18:17:48.060Z,3.90
2017-11-10T18:20:14.914Z,7.50
2017-11-10T18:22:41.712Z,2.77
2017-11-10T18:25:08.558Z,5.30
2017-11-10T18:27:35.378Z,6.10
2017-11-10T18:30:02.166Z,3.93
2017-11-10T18:32:29.281Z,1.63
2017-11-10T18:34:56.135Z,2.50
2017-11-10T18:37:22.943Z,1.43
2017-11-10T18:39:49.774Z,2.90
2017-11-10T18:42:16.637Z,1.33
2017-11-10T18:44:43.517Z,2.00
2017-11-10T18:47:10.304Z,2.13
2017-11-10T18:49:37.115Z,1.67
2017-11-10T18:52:03.940Z,5.20
2017-11-10T18:54:32.521Z,3.80
2017-11-10T18:56:59.336Z,2.83
2017-11-10T18:59:26.108Z,3.10
2017-11-10T19:01:52.894Z,5.30
2017-11-10T19:04:19.732Z,4.83
2017-11-10T19:06:46.539Z,3.87
2017-11-10T19:09:13.316Z,2.37
2017-11-10T19:11:40.112Z,5.90
2017-11-10T19:14:06.915Z,2.07
2017-11-10T19:16:33.714Z,6.20
2017-11-10T19:19:00.536Z,33.30
2017-11-10T19:21:27.338Z,5.23
2017-11-10T19:23:54.149Z,1.00
2017-11-10T19:26:20.945Z,7.33
2017-11-10T19:28:47.745Z,3.13
2017-11-10T19:31:14.523Z,7.40
2017-11-10T19:33:41.336Z,4.23
2017-11-10T19:36:08.148Z,7.70
2017-11-10T19:38:34.949Z,2.93
2017-11-10T19:41:01.731Z,5.60
2017-11-10T19:43:28.495Z,6.70
2017-11-10T19:45:55.280Z,4.10
2017-11-10T19:48:22.086Z,4.17
2017-11-10T19:50:48.860Z,5.03
2017-11-10T19:53:16.027Z,3.07
2017-11-10T19:55:42.805Z,3.70
2017-11-10T19:58:09.626Z,4.90
2017-11-10T20:00:36.394Z,3.13
2017-11-10T20:03:03.241Z,4.23
2017-11-10T20:05:30.099Z,2.13
2017-11-10T20:07:56.932Z,5.10
2017-11-10T20:10:23.744Z,7.20
2017-11-10T20:12:50.545Z,2.83
2017-11-10T20:15:17.366Z,7.00
2017-11-10T20:17:44.166Z,1.23
2017-11-10T20:20:10.941Z,4.30
2017-11-10T20:22:37.721Z,4.57
2017-11-10T20:25:04.687Z,5.50
2017-11-10T20:27:31.656Z,7.20
2017-11-10T20:29:58.472Z,3.33
2017-11-10T20:32:25.317Z,2.90
2017-11-10T20:34:52.113Z,1.50
2017-11-10T20:37:18.950Z,2.20
2017-11-10T20:39:45.756Z,1.87
2017-11-10T20:42:12.565Z,2.73
2017-11-10T20:44:39.386Z,4.43
2017-11-10T20:47:06.228Z,0.87
2017-11-10T20:49:33.039Z,6.53
2017-11-10T20:51:59.812Z,1.10
2017-11-10T20:54:26.680Z,7.07
2017-11-10T20:56:53.454Z,5.20
2017-11-10T20:59:20.241Z,2.90
2017-11-10T21:01:47.072Z,4.43
2017-11-10T21:04:13.873Z,3.20
2017-11-10T21:06:40.693Z,2.20
2017-11-10T21:09:07.555Z,4.20
2017-11-10T21:11:34.324Z,5.10
2017-11-10T21:14:01.168Z,1.20
2017-11-10T21:16:28.051Z,1.93
2017-11-10T21:18:54.813Z,4.70
2017-11-10T21:21:21.593Z,3.20
2017-11-10T21:23:48.436Z,2.10
2017-11-10T21:26:15.217Z,5.07
2017-11-10T21:28:42.012Z,5.23
2017-11-10T21:31:08.834Z,2.27
2017-11-10T21:33:35.588Z,4.33
2017-11-10T21:36:02.367Z,1.10
2017-11-10T21:38:29.172Z,4.87
2017-11-10T21:40:55.941Z,2.07
2017-11-10T21:43:22.709Z,3.60
2017-11-10T21:45:49.510Z,1.27
2017-11-10T21:48:16.303Z,2.43
2017-11-10T21:50:43.285Z,4.63
2017-11-10T21:53:10.088Z,1.97
2017-11-10T21:55:36.897Z,15.57
2017-11-10T21:58:03.691Z,2.37
2017-11-10T22:00:30.498Z,1.97
2017-11-10T22:02:57.293Z,6.13
2017-11-10T22:05:24.088Z,2.43
2017-11-10T22:07:50.896Z,1.13
2017-11-10T22:10:17.667Z,10.27
2017-11-10T22:12:44.440Z,3.37
2017-11-10T22:15:11.286Z,5.00
2017-11-10T22:17:38.090Z,1.37
2017-11-10T22:20:04.893Z,2.60
2017-11-10T22:22:31.685Z,6.70
2017-11-10T22:24:58.433Z,11.93
2017-11-10T22:27:25.488Z,4.20
2017-11-10T22:29:52.308Z,0.80
2017-11-10T22:32:19.059Z,0.80
2017-11-10T22:34:45.800Z,6.80
2017-11-10T22:37:12.830Z,2.10
2017-11-10T22:39:39.623Z,7.50
2017-11-10T22:42:06.396Z,9.07
2017-11-10T22:44:33.215Z,7.03
2017-11-10T22:47:00.209Z,7.50
2017-11-10T22:49:26.983Z,2.63
2017-11-10T22:51:53.785Z,5.30
2017-11-10T22:54:20.559Z,3.47
2017-11-10T22:56:47.335Z,0.60
2017-11-10T22:59:14.137Z,6.10
2017-11-10T23:01:40.943Z,1.43
2017-11-10T23:04:07.719Z,3.43
2017-11-10T23:06:34.533Z,5.93
2017-11-10T23:09:01.305Z,5.90
